首页
METAR-TAF:

METAR-TAF

机场 :

Manitowoc County Airport

Manitowoc, 威斯康辛州, 美国

纬度: 44-08N, 经度: 087-41W, 海拔: 198米

当前天气观测

该预报发布于52分钟前的06:56 UTC
风速7节,风向
温度 2°C
湿度 80%
气压 1021 hPa
能見度: 16.1公里
阴天层高于2200英尺

METAR: KMTW 310656Z AUTO 01007KT 10SM OVC022 02/M01 A3016 RMK AO2 SLP220 T00171011 FZRANO

时间: 02:48 (07:48 UTC)

预报

该预报发布于2小时和28分钟前的05:20 UTC
预报有效从31日的 06点(UTC)到 01日的 06点(UTC)
风速7节,风向
能見度: 10公里
散云层高于1800英尺
多云层高于2500英尺
短暂存在
从 31日的 06点(UTC)到 31日的 10点(UTC)
多云层高于1800英尺
阴天层高于2500英尺
从 31日的 1000点(UTC)
风速7节,风向
能見度: 10公里
阴天层高于1400英尺
从 31日的 1700点(UTC)
风速9节,风向北转东北
能見度: 10公里
多云层高于2500英尺
从 31日的 2200点(UTC)
风速5节,风向北转东北
能見度: 10公里
多云层高于3000英尺

TAF: KMTW 310520Z 3106/0106 36007KT P6SM SCT018 BKN025 TEMPO 3106/3110 BKN018 OVC025 FM311000 35007KT P6SM OVC014 FM311700 03009KT P6SM BKN025 FM312200 03005KT P6SM BKN030

超过4000个机场的气象观测和天气预报(METAR&TAF报告)。

可查询的气象台以黄色和红色小点在地图上表示。

将鼠标移到小点上方,可查看气象台名称。

然后点击查看天气观测和预报。

如需切换地图:点击带黑十字的绿色按钮放大地图;点击带横线的绿色按钮缩小地图;或者点击绿色箭头查看邻近地区的地图。


METAR-TAF: